sensor_id;sensor_type;location;lat;lon;timestamp;temperature;humidity
18103;DHT22;9178;51.120;6.192;2022-12-17T00:01:22;-0.10;99.90
18103;DHT22;9178;51.120;6.192;2022-12-17T00:04:06;-0.10;99.90
18103;DHT22;9178;51.120;6.192;2022-12-17T00:06:51;-0.10;99.90
18103;DHT22;9178;51.120;6.192;2022-12-17T00:09:35;-0.10;99.90
18103;DHT22;9178;51.120;6.192;2022-12-17T00:12:20;-0.10;99.90
18103;DHT22;9178;51.120;6.192;2022-12-17T00:15:05;-0.20;99.90
18103;DHT22;9178;51.120;6.192;2022-12-17T00:18:02;-0.20;99.90
18103;DHT22;9178;51.120;6.192;2022-12-17T00:20:51;-0.20;99.90
18103;DHT22;9178;51.120;6.192;2022-12-17T00:23:35;-0.20;99.90
18103;DHT22;9178;51.120;6.192;2022-12-17T00:26:20;-0.30;99.90
18103;DHT22;9178;51.120;6.192;2022-12-17T00:29:05;-0.30;99.90
18103;DHT22;9178;51.120;6.192;2022-12-17T00:31:50;-0.30;99.90
18103;DHT22;9178;51.120;6.192;2022-12-17T00:34:34;-0.20;99.90
18103;DHT22;9178;51.120;6.192;2022-12-17T00:37:18;-0.20;99.90
18103;DHT22;9178;51.120;6.192;2022-12-17T00:40:03;-0.20;99.90
18103;DHT22;9178;51.120;6.192;2022-12-17T00:42:51;-0.30;99.90
18103;DHT22;9178;51.120;6.192;2022-12-17T00:45:43;-0.20;99.90
18103;DHT22;9178;51.120;6.192;2022-12-17T00:48:27;-0.20;99.90
18103;DHT22;9178;51.120;6.192;2022-12-17T00:51:11;-0.20;99.90
18103;DHT22;9178;51.120;6.192;2022-12-17T00:53:55;-0.20;99.90
18103;DHT22;9178;51.120;6.192;2022-12-17T00:56:39;-0.30;99.90
18103;DHT22;9178;51.120;6.192;2022-12-17T00:59:24;-0.30;99.90
18103;DHT22;9178;51.120;6.192;2022-12-17T01:02:09;-0.30;99.90
18103;DHT22;9178;51.120;6.192;2022-12-17T01:04:53;-0.30;99.90
18103;DHT22;9178;51.120;6.192;2022-12-17T01:07:37;-0.30;99.90
18103;DHT22;9178;51.120;6.192;2022-12-17T01:10:22;-0.40;99.90
18103;DHT22;9178;51.120;6.192;2022-12-17T01:13:03;-0.40;99.90
18103;DHT22;9178;51.120;6.192;2022-12-17T01:15:47;-0.40;99.90
18103;DHT22;9178;51.120;6.192;2022-12-17T01:18:33;-0.40;99.90
18103;DHT22;9178;51.120;6.192;2022-12-17T01:21:28;-0.40;99.90
18103;DHT22;9178;51.120;6.192;2022-12-17T01:24:12;-0.50;99.90
18103;DHT22;9178;51.120;6.192;2022-12-17T01:26:57;-0.50;99.90
18103;DHT22;9178;51.120;6.192;2022-12-17T01:29:41;-0.50;99.90
18103;DHT22;9178;51.120;6.192;2022-12-17T01:32:25;-0.50;99.90
18103;DHT22;9178;51.120;6.192;2022-12-17T01:35:11;-0.40;99.90
18103;DHT22;9178;51.120;6.192;2022-12-17T01:37:56;-0.40;99.90
18103;DHT22;9178;51.120;6.192;2022-12-17T01:40:40;-0.40;99.90
18103;DHT22;9178;51.120;6.192;2022-12-17T01:43:32;-0.50;99.90
18103;DHT22;9178;51.120;6.192;2022-12-17T01:46:17;-0.50;99.90
18103;DHT22;9178;51.120;6.192;2022-12-17T01:49:01;-0.50;99.90
18103;DHT22;9178;51.120;6.192;2022-12-17T01:51:47;-0.50;99.90
18103;DHT22;9178;51.120;6.192;2022-12-17T01:54:33;-0.50;99.90
18103;DHT22;9178;51.120;6.192;2022-12-17T01:57:17;-0.60;99.90
18103;DHT22;9178;51.120;6.192;2022-12-17T02:00:00;-0.60;99.90
18103;DHT22;9178;51.120;6.192;2022-12-17T02:02:44;-0.60;99.90
18103;DHT22;9178;51.120;6.192;2022-12-17T02:05:30;-0.60;99.90
18103;DHT22;9178;51.120;6.192;2022-12-17T02:08:22;-0.60;99.90
18103;DHT22;9178;51.120;6.192;2022-12-17T02:11:14;-0.70;99.90
18103;DHT22;9178;51.120;6.192;2022-12-17T02:14:08;-0.70;99.90
18103;DHT22;9178;51.120;6.192;2022-12-17T02:16:57;-0.70;99.90
18103;DHT22;9178;51.120;6.192;2022-12-17T02:19:46;-0.70;99.90
18103;DHT22;9178;51.120;6.192;2022-12-17T02:22:37;-0.70;99.90
18103;DHT22;9178;51.120;6.192;2022-12-17T02:25:33;-0.80;99.90
18103;DHT22;9178;51.120;6.192;2022-12-17T02:28:18;-0.70;99.90
18103;DHT22;9178;51.120;6.192;2022-12-17T02:31:04;-0.80;99.90
18103;DHT22;9178;51.120;6.192;2022-12-17T02:33:51;-0.70;99.90
18103;DHT22;9178;51.120;6.192;2022-12-17T02:36:35;-0.80;99.90
18103;DHT22;9178;51.120;6.192;2022-12-17T02:39:20;-0.80;99.90
18103;DHT22;9178;51.120;6.192;2022-12-17T02:42:05;-0.80;99.90
18103;DHT22;9178;51.120;6.192;2022-12-17T02:44:51;-0.80;99.90
18103;DHT22;9178;51.120;6.192;2022-12-17T02:47:36;-0.80;99.90
18103;DHT22;9178;51.120;6.192;2022-12-17T02:50:20;-0.80;99.90
18103;DHT22;9178;51.120;6.192;2022-12-17T02:53:05;-0.90;99.90
18103;DHT22;9178;51.120;6.192;2022-12-17T02:55:52;-0.90;99.90
18103;DHT22;9178;51.120;6.192;2022-12-17T02:58:36;-0.90;99.90
18103;DHT22;9178;51.120;6.192;2022-12-17T03:01:22;-0.90;99.90
18103;DHT22;9178;51.120;6.192;2022-12-17T03:04:06;-0.80;99.90
18103;DHT22;9178;51.120;6.192;2022-12-17T03:06:50;-0.80;99.90
18103;DHT22;9178;51.120;6.192;2022-12-17T03:09:35;-0.80;99.90
18103;DHT22;9178;51.120;6.192;2022-12-17T03:12:19;-0.80;99.90
18103;DHT22;9178;51.120;6.192;2022-12-17T03:15:04;-0.80;99.90
18103;DHT22;9178;51.120;6.192;2022-12-17T03:17:49;-0.80;99.90
18103;DHT22;9178;51.120;6.192;2022-12-17T03:20:33;-0.80;99.90
18103;DHT22;9178;51.120;6.192;2022-12-17T03:23:17;-0.80;99.90
18103;DHT22;9178;51.120;6.192;2022-12-17T03:26:02;-0.80;99.90
18103;DHT22;9178;51.120;6.192;2022-12-17T03:28:47;-0.80;99.90
18103;DHT22;9178;51.120;6.192;2022-12-17T03:31:30;-0.80;99.90
18103;DHT22;9178;51.120;6.192;2022-12-17T03:34:16;-0.80;99.90
18103;DHT22;9178;51.120;6.192;2022-12-17T03:37:08;-0.80;99.90
18103;DHT22;9178;51.120;6.192;2022-12-17T03:39:53;-0.80;99.90
18103;DHT22;9178;51.120;6.192;2022-12-17T03:42:37;-0.80;99.90
18103;DHT22;9178;51.120;6.192;2022-12-17T03:45:21;-0.80;99.90
18103;DHT22;9178;51.120;6.192;2022-12-17T03:48:08;-0.90;99.90
18103;DHT22;9178;51.120;6.192;2022-12-17T03:50:54;-0.90;99.90
18103;DHT22;9178;51.120;6.192;2022-12-17T03:53:39;-0.90;99.90
18103;DHT22;9178;51.120;6.192;2022-12-17T03:56:24;-0.90;99.90
18103;DHT22;9178;51.120;6.192;2022-12-17T03:59:09;-0.80;99.90
18103;DHT22;9178;51.120;6.192;2022-12-17T04:01:54;-0.80;99.90
18103;DHT22;9178;51.120;6.192;2022-12-17T04:04:39;-0.70;99.90
18103;DHT22;9178;51.120;6.192;2022-12-17T04:07:24;-0.70;99.90
18103;DHT22;9178;51.120;6.192;2022-12-17T04:10:08;-0.70;99.90
18103;DHT22;9178;51.120;6.192;2022-12-17T04:12:52;-0.70;99.90
18103;DHT22;9178;51.120;6.192;2022-12-17T04:15:37;-0.70;99.90
18103;DHT22;9178;51.120;6.192;2022-12-17T04:18:21;-0.70;99.90
18103;DHT22;9178;51.120;6.192;2022-12-17T04:21:05;-0.70;99.90
18103;DHT22;9178;51.120;6.192;2022-12-17T04:23:51;-0.70;99.90
18103;DHT22;9178;51.120;6.192;2022-12-17T04:26:36;-0.70;99.90
18103;DHT22;9178;51.120;6.192;2022-12-17T04:29:20;-0.80;99.90
18103;DHT22;9178;51.120;6.192;2022-12-17T04:32:04;-0.80;99.90
18103;DHT22;9178;51.120;6.192;2022-12-17T04:34:48;-0.80;99.90
18103;DHT22;9178;51.120;6.192;2022-12-17T04:37:32;-0.80;99.90
18103;DHT22;9178;51.120;6.192;2022-12-17T04:40:19;-0.80;99.90
18103;DHT22;9178;51.120;6.192;2022-12-17T04:43:08;-0.80;99.90
18103;DHT22;9178;51.120;6.192;2022-12-17T04:45:52;-0.80;99.90
18103;DHT22;9178;51.120;6.192;2022-12-17T04:48:42;-0.70;99.90
18103;DHT22;9178;51.120;6.192;2022-12-17T04:51:26;-0.70;99.90
18103;DHT22;9178;51.120;6.192;2022-12-17T04:54:10;-0.70;99.90
18103;DHT22;9178;51.120;6.192;2022-12-17T04:56:56;-0.70;99.90
18103;DHT22;9178;51.120;6.192;2022-12-17T04:59:40;-0.70;99.90
18103;DHT22;9178;51.120;6.192;2022-12-17T05:02:24;-0.70;99.90
18103;DHT22;9178;51.120;6.192;2022-12-17T05:05:09;-0.70;99.90
18103;DHT22;9178;51.120;6.192;2022-12-17T05:07:53;-0.70;99.90
18103;DHT22;9178;51.120;6.192;2022-12-17T05:10:39;-0.70;99.90
18103;DHT22;9178;51.120;6.192;2022-12-17T05:13:25;-0.70;99.90
18103;DHT22;9178;51.120;6.192;2022-12-17T05:16:09;-0.70;99.90
18103;DHT22;9178;51.120;6.192;2022-12-17T05:18:54;-0.80;99.90
18103;DHT22;9178;51.120;6.192;2022-12-17T05:21:38;-0.80;99.90
18103;DHT22;9178;51.120;6.192;2022-12-17T05:24:22;-0.80;99.90
18103;DHT22;9178;51.120;6.192;2022-12-17T05:27:07;-0.80;99.90
18103;DHT22;9178;51.120;6.192;2022-12-17T05:29:53;-0.80;99.90
18103;DHT22;9178;51.120;6.192;2022-12-17T05:32:37;-0.80;99.90
18103;DHT22;9178;51.120;6.192;2022-12-17T05:35:22;-0.90;99.90
18103;DHT22;9178;51.120;6.192;2022-12-17T05:38:07;-0.90;99.90
18103;DHT22;9178;51.120;6.192;2022-12-17T05:40:55;-1.00;99.90
18103;DHT22;9178;51.120;6.192;2022-12-17T05:43:39;-1.00;99.90
18103;DHT22;9178;51.120;6.192;2022-12-17T05:46:24;-1.00;99.90
18103;DHT22;9178;51.120;6.192;2022-12-17T05:49:09;-1.10;99.90
18103;DHT22;9178;51.120;6.192;2022-12-17T05:51:53;-1.00;99.90
18103;DHT22;9178;51.120;6.192;2022-12-17T05:54:37;-1.00;99.90
18103;DHT22;9178;51.120;6.192;2022-12-17T05:57:21;-1.00;99.90
18103;DHT22;9178;51.120;6.192;2022-12-17T06:00:07;-1.10;99.90
18103;DHT22;9178;51.120;6.192;2022-12-17T06:02:57;-1.10;99.90
18103;DHT22;9178;51.120;6.192;2022-12-17T06:05:41;-1.20;99.90
18103;DHT22;9178;51.120;6.192;2022-12-17T06:08:26;-1.10;99.90
18103;DHT22;9178;51.120;6.192;2022-12-17T06:11:10;-1.10;99.90
18103;DHT22;9178;51.120;6.192;2022-12-17T06:13:54;-1.10;99.90
18103;DHT22;9178;51.120;6.192;2022-12-17T06:16:38;-1.10;99.90
18103;DHT22;9178;51.120;6.192;2022-12-17T06:19:23;-1.10;99.90
18103;DHT22;9178;51.120;6.192;2022-12-17T06:22:08;-1.20;99.90
18103;DHT22;9178;51.120;6.192;2022-12-17T06:24:55;-1.20;99.90
18103;DHT22;9178;51.120;6.192;2022-12-17T06:27:39;-1.10;99.90
18103;DHT22;9178;51.120;6.192;2022-12-17T06:30:23;-1.10;99.90
18103;DHT22;9178;51.120;6.192;2022-12-17T06:33:10;-1.10;99.90
18103;DHT22;9178;51.120;6.192;2022-12-17T06:35:57;-1.20;99.90
18103;DHT22;9178;51.120;6.192;2022-12-17T06:38:41;-1.20;99.90
18103;DHT22;9178;51.120;6.192;2022-12-17T06:41:26;-1.20;99.90
18103;DHT22;9178;51.120;6.192;2022-12-17T06:44:10;-1.20;99.90
18103;DHT22;9178;51.120;6.192;2022-12-17T06:46:54;-1.20;99.90
18103;DHT22;9178;51.120;6.192;2022-12-17T06:49:53;-1.20;99.90
18103;DHT22;9178;51.120;6.192;2022-12-17T06:52:39;-1.20;99.90
18103;DHT22;9178;51.120;6.192;2022-12-17T06:55:23;-1.20;99.90
18103;DHT22;9178;51.120;6.192;2022-12-17T06:58:15;-1.20;99.90
18103;DHT22;9178;51.120;6.192;2022-12-17T07:01:00;-1.20;99.90
18103;DHT22;9178;51.120;6.192;2022-12-17T07:03:44;-1.20;99.90
18103;DHT22;9178;51.120;6.192;2022-12-17T07:06:28;-1.20;99.90
18103;DHT22;9178;51.120;6.192;2022-12-17T07:09:14;-1.20;99.90
18103;DHT22;9178;51.120;6.192;2022-12-17T07:11:58;-1.20;99.90
18103;DHT22;9178;51.120;6.192;2022-12-17T07:14:48;-1.20;99.90
18103;DHT22;9178;51.120;6.192;2022-12-17T07:17:32;-1.30;99.90
18103;DHT22;9178;51.120;6.192;2022-12-17T07:20:17;-1.30;99.90
18103;DHT22;9178;51.120;6.192;2022-12-17T07:23:01;-1.30;99.90
18103;DHT22;9178;51.120;6.192;2022-12-17T07:25:46;-1.30;99.90
18103;DHT22;9178;51.120;6.192;2022-12-17T07:28:31;-1.30;99.90
18103;DHT22;9178;51.120;6.192;2022-12-17T07:31:15;-1.30;99.90
18103;DHT22;9178;51.120;6.192;2022-12-17T07:33:59;-1.30;99.90
18103;DHT22;9178;51.120;6.192;2022-12-17T07:36:44;-1.40;99.90
18103;DHT22;9178;51.120;6.192;2022-12-17T07:39:28;-1.40;99.90
18103;DHT22;9178;51.120;6.192;2022-12-17T07:42:13;-1.40;99.90
18103;DHT22;9178;51.120;6.192;2022-12-17T07:44:57;-1.40;99.90
18103;DHT22;9178;51.120;6.192;2022-12-17T07:47:42;-1.40;99.90
18103;DHT22;9178;51.120;6.192;2022-12-17T07:50:26;-1.40;99.90
18103;DHT22;9178;51.120;6.192;2022-12-17T07:53:10;-1.50;99.90
18103;DHT22;9178;51.120;6.192;2022-12-17T07:55:54;-1.40;99.90
18103;DHT22;9178;51.120;6.192;2022-12-17T07:58:40;-1.40;99.90
18103;DHT22;9178;51.120;6.192;2022-12-17T08:01:24;-1.40;99.90
18103;DHT22;9178;51.120;6.192;2022-12-17T08:04:09;-1.50;99.90
18103;DHT22;9178;51.120;6.192;2022-12-17T08:06:53;-1.50;99.90
18103;DHT22;9178;51.120;6.192;2022-12-17T08:09:37;-1.50;99.90
18103;DHT22;9178;51.120;6.192;2022-12-17T08:12:21;-1.50;99.90
18103;DHT22;9178;51.120;6.192;2022-12-17T08:15:08;-1.40;99.90
18103;DHT22;9178;51.120;6.192;2022-12-17T08:17:58;-1.40;99.90
18103;DHT22;9178;51.120;6.192;2022-12-17T08:20:43;-1.40;99.90
18103;DHT22;9178;51.120;6.192;2022-12-17T08:23:27;-1.50;99.90
18103;DHT22;9178;51.120;6.192;2022-12-17T08:26:11;-1.50;99.90
18103;DHT22;9178;51.120;6.192;2022-12-17T08:28:56;-1.50;99.90
18103;DHT22;9178;51.120;6.192;2022-12-17T08:31:42;-1.50;99.90
18103;DHT22;9178;51.120;6.192;2022-12-17T08:34:26;-1.50;99.90
18103;DHT22;9178;51.120;6.192;2022-12-17T08:37:10;-1.60;99.90
18103;DHT22;9178;51.120;6.192;2022-12-17T08:39:54;-1.60;99.90
18103;DHT22;9178;51.120;6.192;2022-12-17T08:42:38;-1.60;99.90
18103;DHT22;9178;51.120;6.192;2022-12-17T08:45:23;-1.60;99.90
18103;DHT22;9178;51.120;6.192;2022-12-17T08:48:10;-1.50;99.90
18103;DHT22;9178;51.120;6.192;2022-12-17T08:50:54;-1.50;99.90
18103;DHT22;9178;51.120;6.192;2022-12-17T08:53:39;-1.60;99.90
18103;DHT22;9178;51.120;6.192;2022-12-17T08:56:24;-1.60;99.90
18103;DHT22;9178;51.120;6.192;2022-12-17T08:59:08;-1.60;99.90
18103;DHT22;9178;51.120;6.192;2022-12-17T09:01:52;-1.60;99.90
18103;DHT22;9178;51.120;6.192;2022-12-17T09:04:38;-1.50;99.90
18103;DHT22;9178;51.120;6.192;2022-12-17T09:07:22;-1.50;99.90
18103;DHT22;9178;51.120;6.192;2022-12-17T09:10:07;-1.60;99.90
18103;DHT22;9178;51.120;6.192;2022-12-17T09:12:52;-1.50;99.90
18103;DHT22;9178;51.120;6.192;2022-12-17T09:15:36;-1.60;99.90
18103;DHT22;9178;51.120;6.192;2022-12-17T09:18:21;-1.60;99.90
18103;DHT22;9178;51.120;6.192;2022-12-17T09:21:07;-1.50;99.90
18103;DHT22;9178;51.120;6.192;2022-12-17T09:23:51;-1.50;99.90
18103;DHT22;9178;51.120;6.192;2022-12-17T09:26:36;-1.40;99.90
18103;DHT22;9178;51.120;6.192;2022-12-17T09:29:20;-1.40;99.90
18103;DHT22;9178;51.120;6.192;2022-12-17T09:32:04;-1.40;99.90
18103;DHT22;9178;51.120;6.192;2022-12-17T09:34:49;-1.40;99.90
18103;DHT22;9178;51.120;6.192;2022-12-17T09:37:34;-1.30;99.90
18103;DHT22;9178;51.120;6.192;2022-12-17T09:40:21;-1.40;99.90
18103;DHT22;9178;51.120;6.192;2022-12-17T09:43:14;-1.40;99.90
18103;DHT22;9178;51.120;6.192;2022-12-17T09:46:05;-1.40;99.90
18103;DHT22;9178;51.120;6.192;2022-12-17T09:48:59;-1.40;99.90
18103;DHT22;9178;51.120;6.192;2022-12-17T09:51:44;-1.50;99.90
18103;DHT22;9178;51.120;6.192;2022-12-17T09:54:32;-1.40;99.90
18103;DHT22;9178;51.120;6.192;2022-12-17T09:57:20;-1.40;99.90
18103;DHT22;9178;51.120;6.192;2022-12-17T10:00:13;-1.40;99.90
18103;DHT22;9178;51.120;6.192;2022-12-17T10:02:57;-1.40;99.90
18103;DHT22;9178;51.120;6.192;2022-12-17T10:05:43;-1.50;99.90
18103;DHT22;9178;51.120;6.192;2022-12-17T10:08:29;-1.50;99.90
18103;DHT22;9178;51.120;6.192;2022-12-17T10:11:19;-1.60;99.90
18103;DHT22;9178;51.120;6.192;2022-12-17T10:14:09;-1.50;99.90
18103;DHT22;9178;51.120;6.192;2022-12-17T10:16:54;-1.60;99.90
18103;DHT22;9178;51.120;6.192;2022-12-17T10:19:40;-1.60;99.90
18103;DHT22;9178;51.120;6.192;2022-12-17T10:22:25;-1.60;99.90
18103;DHT22;9178;51.120;6.192;2022-12-17T10:25:14;-1.70;99.90
18103;DHT22;9178;51.120;6.192;2022-12-17T10:28:01;-1.70;99.90
18103;DHT22;9178;51.120;6.192;2022-12-17T10:30:47;-1.70;99.90
18103;DHT22;9178;51.120;6.192;2022-12-17T10:33:36;-1.70;99.90
18103;DHT22;9178;51.120;6.192;2022-12-17T10:36:22;-1.80;99.90
18103;DHT22;9178;51.120;6.192;2022-12-17T10:39:14;-1.80;99.90
18103;DHT22;9178;51.120;6.192;2022-12-17T10:41:59;-1.70;99.90
18103;DHT22;9178;51.120;6.192;2022-12-17T10:44:45;-1.70;99.90
18103;DHT22;9178;51.120;6.192;2022-12-17T10:47:29;-1.80;99.90
18103;DHT22;9178;51.120;6.192;2022-12-17T10:50:18;-1.80;99.90
18103;DHT22;9178;51.120;6.192;2022-12-17T10:53:15;-1.70;99.90
18103;DHT22;9178;51.120;6.192;2022-12-17T10:56:01;-1.80;99.90
18103;DHT22;9178;51.120;6.192;2022-12-17T10:58:46;-1.80;99.90
18103;DHT22;9178;51.120;6.192;2022-12-17T11:01:33;-1.80;99.90
18103;DHT22;9178;51.120;6.192;2022-12-17T11:04:25;-1.80;99.90
18103;DHT22;9178;51.120;6.192;2022-12-17T11:07:13;-1.80;99.90
18103;DHT22;9178;51.120;6.192;2022-12-17T11:10:00;-1.80;99.90
18103;DHT22;9178;51.120;6.192;2022-12-17T11:12:47;-1.90;99.90
18103;DHT22;9178;51.120;6.192;2022-12-17T11:15:37;-1.90;99.90
18103;DHT22;9178;51.120;6.192;2022-12-17T11:18:33;-1.80;99.90
18103;DHT22;9178;51.120;6.192;2022-12-17T11:21:20;-1.70;99.90
18103;DHT22;9178;51.120;6.192;2022-12-17T11:24:11;-1.70;99.90
18103;DHT22;9178;51.120;6.192;2022-12-17T11:26:57;-1.60;99.90
18103;DHT22;9178;51.120;6.192;2022-12-17T11:29:41;-1.60;99.90
18103;DHT22;9178;51.120;6.192;2022-12-17T11:35:48;-1.70;99.90
18103;DHT22;9178;51.120;6.192;2022-12-17T11:38:37;-1.70;99.90
18103;DHT22;9178;51.120;6.192;2022-12-17T11:41:29;-1.60;99.90
18103;DHT22;9178;51.120;6.192;2022-12-17T11:44:27;-1.70;99.90
18103;DHT22;9178;51.120;6.192;2022-12-17T11:47:22;-1.70;99.90
18103;DHT22;9178;51.120;6.192;2022-12-17T11:50:18;-1.70;99.90
18103;DHT22;9178;51.120;6.192;2022-12-17T11:53:12;-1.80;99.90
18103;DHT22;9178;51.120;6.192;2022-12-17T11:56:06;-1.70;99.90
18103;DHT22;9178;51.120;6.192;2022-12-17T11:58:58;-1.60;99.90
18103;DHT22;9178;51.120;6.192;2022-12-17T12:01:49;-1.60;99.90
18103;DHT22;9178;51.120;6.192;2022-12-17T12:05:03;-1.60;99.90
18103;DHT22;9178;51.120;6.192;2022-12-17T12:07:57;-1.70;99.90
18103;DHT22;9178;51.120;6.192;2022-12-17T12:10:51;-1.60;99.90
18103;DHT22;9178;51.120;6.192;2022-12-17T12:13:40;-1.60;99.90
18103;DHT22;9178;51.120;6.192;2022-12-17T12:16:48;-1.80;99.90
18103;DHT22;9178;51.120;6.192;2022-12-17T12:19:38;-1.80;99.90
18103;DHT22;9178;51.120;6.192;2022-12-17T12:22:30;-1.80;99.90
18103;DHT22;9178;51.120;6.192;2022-12-17T12:25:23;-1.70;99.90
18103;DHT22;9178;51.120;6.192;2022-12-17T12:28:21;-1.70;99.90
18103;DHT22;9178;51.120;6.192;2022-12-17T12:31:17;-1.80;99.90
18103;DHT22;9178;51.120;6.192;2022-12-17T12:34:03;-1.70;99.90
18103;DHT22;9178;51.120;6.192;2022-12-17T12:36:49;-1.60;99.90
18103;DHT22;9178;51.120;6.192;2022-12-17T12:39:38;-1.70;99.90
18103;DHT22;9178;51.120;6.192;2022-12-17T12:42:28;-1.80;99.90
18103;DHT22;9178;51.120;6.192;2022-12-17T12:45:29;-1.80;99.90
18103;DHT22;9178;51.120;6.192;2022-12-17T12:48:26;-1.80;99.90
18103;DHT22;9178;51.120;6.192;2022-12-17T12:51:12;-1.70;99.90
18103;DHT22;9178;51.120;6.192;2022-12-17T12:54:00;-1.70;99.90
18103;DHT22;9178;51.120;6.192;2022-12-17T12:56:45;-1.70;99.90
18103;DHT22;9178;51.120;6.192;2022-12-17T12:59:31;-1.90;99.90
18103;DHT22;9178;51.120;6.192;2022-12-17T13:02:24;-1.90;99.90
18103;DHT22;9178;51.120;6.192;2022-12-17T13:05:26;-1.70;99.90
18103;DHT22;9178;51.120;6.192;2022-12-17T13:08:03;-1.70;99.90
18103;DHT22;9178;51.120;6.192;2022-12-17T13:10:31;-1.70;99.90
18103;DHT22;9178;51.120;6.192;2022-12-17T13:12:59;-1.80;99.90
18103;DHT22;9178;51.120;6.192;2022-12-17T13:15:36;-1.80;99.90
18103;DHT22;9178;51.120;6.192;2022-12-17T13:18:17;-1.80;99.90
18103;DHT22;9178;51.120;6.192;2022-12-17T13:20:55;-1.80;99.90
18103;DHT22;9178;51.120;6.192;2022-12-17T13:23:29;-1.80;99.90
18103;DHT22;9178;51.120;6.192;2022-12-17T13:26:13;-1.70;99.90
18103;DHT22;9178;51.120;6.192;2022-12-17T13:28:43;-1.80;99.90
18103;DHT22;9178;51.120;6.192;2022-12-17T13:31:16;-1.90;99.90
18103;DHT22;9178;51.120;6.192;2022-12-17T13:33:49;-2.00;99.90
18103;DHT22;9178;51.120;6.192;2022-12-17T13:36:25;-2.00;99.90
18103;DHT22;9178;51.120;6.192;2022-12-17T13:38:58;-2.10;99.90
18103;DHT22;9178;51.120;6.192;2022-12-17T13:41:30;-2.20;99.90
18103;DHT22;9178;51.120;6.192;2022-12-17T13:44:00;-2.20;99.90
18103;DHT22;9178;51.120;6.192;2022-12-17T13:46:33;-2.20;99.90
18103;DHT22;9178;51.120;6.192;2022-12-17T13:49:03;-2.10;99.90
18103;DHT22;9178;51.120;6.192;2022-12-17T13:51:32;-2.10;99.90
18103;DHT22;9178;51.120;6.192;2022-12-17T13:54:01;-2.20;99.90
18103;DHT22;9178;51.120;6.192;2022-12-17T13:56:29;-2.20;99.90
18103;DHT22;9178;51.120;6.192;2022-12-17T13:58:58;-2.20;99.90
18103;DHT22;9178;51.120;6.192;2022-12-17T14:01:27;-2.20;99.90
18103;DHT22;9178;51.120;6.192;2022-12-17T14:03:55;-2.20;99.90
18103;DHT22;9178;51.120;6.192;2022-12-17T14:06:26;-2.20;99.90
18103;DHT22;9178;51.120;6.192;2022-12-17T14:08:55;-2.20;99.90
18103;DHT22;9178;51.120;6.192;2022-12-17T14:11:22;-2.20;99.90
18103;DHT22;9178;51.120;6.192;2022-12-17T14:14:11;-2.10;99.90
18103;DHT22;9178;51.120;6.192;2022-12-17T14:16:41;-2.20;99.90
18103;DHT22;9178;51.120;6.192;2022-12-17T14:19:08;-2.20;99.90
18103;DHT22;9178;51.120;6.192;2022-12-17T14:21:37;-2.30;99.90
18103;DHT22;9178;51.120;6.192;2022-12-17T14:24:06;-2.30;99.90
18103;DHT22;9178;51.120;6.192;2022-12-17T14:26:46;-2.30;99.90
18103;DHT22;9178;51.120;6.192;2022-12-17T14:29:13;-2.30;99.90
18103;DHT22;9178;51.120;6.192;2022-12-17T14:31:51;-2.30;99.90
18103;DHT22;9178;51.120;6.192;2022-12-17T14:34:18;-2.30;99.90
18103;DHT22;9178;51.120;6.192;2022-12-17T14:36:53;-2.20;99.90
18103;DHT22;9178;51.120;6.192;2022-12-17T14:39:22;-2.20;99.90
18103;DHT22;9178;51.120;6.192;2022-12-17T14:41:50;-2.20;99.90
18103;DHT22;9178;51.120;6.192;2022-12-17T14:44:39;-2.20;99.90
18103;DHT22;9178;51.120;6.192;2022-12-17T14:47:11;-2.30;99.90
18103;DHT22;9178;51.120;6.192;2022-12-17T14:49:54;-2.30;99.90
18103;DHT22;9178;51.120;6.192;2022-12-17T14:52:29;-2.40;99.90
18103;DHT22;9178;51.120;6.192;2022-12-17T14:54:56;-2.40;99.90
18103;DHT22;9178;51.120;6.192;2022-12-17T14:57:23;-2.40;99.90
18103;DHT22;9178;51.120;6.192;2022-12-17T14:59:49;-2.40;99.90
18103;DHT22;9178;51.120;6.192;2022-12-17T15:02:22;-2.30;99.90
18103;DHT22;9178;51.120;6.192;2022-12-17T15:04:52;-2.30;99.90
18103;DHT22;9178;51.120;6.192;2022-12-17T15:07:24;-2.40;99.90
18103;DHT22;9178;51.120;6.192;2022-12-17T15:09:52;-2.50;99.90
18103;DHT22;9178;51.120;6.192;2022-12-17T15:12:19;-2.50;99.90
18103;DHT22;9178;51.120;6.192;2022-12-17T15:14:46;-2.60;99.90
18103;DHT22;9178;51.120;6.192;2022-12-17T15:17:14;-2.60;99.90
18103;DHT22;9178;51.120;6.192;2022-12-17T15:19:41;-2.70;99.90
18103;DHT22;9178;51.120;6.192;2022-12-17T15:22:13;-2.70;99.90
18103;DHT22;9178;51.120;6.192;2022-12-17T15:24:41;-2.80;99.90
18103;DHT22;9178;51.120;6.192;2022-12-17T15:27:11;-2.80;99.90
18103;DHT22;9178;51.120;6.192;2022-12-17T15:30:04;-2.80;99.90
18103;DHT22;9178;51.120;6.192;2022-12-17T15:32:30;-2.90;99.90
18103;DHT22;9178;51.120;6.192;2022-12-17T15:34:57;-3.00;99.90
18103;DHT22;9178;51.120;6.192;2022-12-17T15:37:24;-3.00;99.90
18103;DHT22;9178;51.120;6.192;2022-12-17T15:39:52;-3.00;99.90
18103;DHT22;9178;51.120;6.192;2022-12-17T15:42:22;-3.00;99.90
18103;DHT22;9178;51.120;6.192;2022-12-17T15:45:07;-3.10;99.90
18103;DHT22;9178;51.120;6.192;2022-12-17T15:47:34;-3.20;99.90
18103;DHT22;9178;51.120;6.192;2022-12-17T15:50:01;-3.20;99.90
18103;DHT22;9178;51.120;6.192;2022-12-17T15:52:28;-3.30;99.90
18103;DHT22;9178;51.120;6.192;2022-12-17T15:54:56;-3.40;99.90
18103;DHT22;9178;51.120;6.192;2022-12-17T15:57:22;-3.40;99.90
18103;DHT22;9178;51.120;6.192;2022-12-17T15:59:49;-3.50;99.90
18103;DHT22;9178;51.120;6.192;2022-12-17T16:02:16;-3.50;99.90
18103;DHT22;9178;51.120;6.192;2022-12-17T16:04:43;-3.60;99.90
18103;DHT22;9178;51.120;6.192;2022-12-17T16:07:10;-3.60;99.90
18103;DHT22;9178;51.120;6.192;2022-12-17T16:09:36;-3.70;99.90
18103;DHT22;9178;51.120;6.192;2022-12-17T16:12:05;-3.70;99.90
18103;DHT22;9178;51.120;6.192;2022-12-17T16:14:32;-3.80;99.90
18103;DHT22;9178;51.120;6.192;2022-12-17T16:16:58;-3.80;99.90
18103;DHT22;9178;51.120;6.192;2022-12-17T16:19:25;-3.90;99.90
18103;DHT22;9178;51.120;6.192;2022-12-17T16:21:52;-3.90;99.90
18103;DHT22;9178;51.120;6.192;2022-12-17T16:24:19;-3.90;99.90
18103;DHT22;9178;51.120;6.192;2022-12-17T16:26:45;-3.90;99.90
18103;DHT22;9178;51.120;6.192;2022-12-17T16:29:14;-4.00;99.90
18103;DHT22;9178;51.120;6.192;2022-12-17T16:31:41;-4.10;99.90
18103;DHT22;9178;51.120;6.192;2022-12-17T16:34:08;-4.20;99.90
18103;DHT22;9178;51.120;6.192;2022-12-17T16:36:35;-4.20;99.90
18103;DHT22;9178;51.120;6.192;2022-12-17T16:39:03;-4.20;99.90
18103;DHT22;9178;51.120;6.192;2022-12-17T16:41:30;-4.20;99.90
18103;DHT22;9178;51.120;6.192;2022-12-17T16:43:57;-4.20;99.90
18103;DHT22;9178;51.120;6.192;2022-12-17T16:46:28;-4.30;99.90
18103;DHT22;9178;51.120;6.192;2022-12-17T16:48:56;-4.40;99.90
18103;DHT22;9178;51.120;6.192;2022-12-17T16:51:25;-4.30;99.90
18103;DHT22;9178;51.120;6.192;2022-12-17T16:53:52;-4.30;99.90
18103;DHT22;9178;51.120;6.192;2022-12-17T16:56:21;-4.30;99.90
18103;DHT22;9178;51.120;6.192;2022-12-17T16:58:49;-4.30;99.90
18103;DHT22;9178;51.120;6.192;2022-12-17T17:01:18;-4.40;99.90
18103;DHT22;9178;51.120;6.192;2022-12-17T17:03:47;-4.40;99.90
18103;DHT22;9178;51.120;6.192;2022-12-17T17:06:14;-4.40;99.90
18103;DHT22;9178;51.120;6.192;2022-12-17T17:08:41;-4.40;99.90
18103;DHT22;9178;51.120;6.192;2022-12-17T17:11:09;-4.50;99.90
18103;DHT22;9178;51.120;6.192;2022-12-17T17:13:37;-4.50;99.90
18103;DHT22;9178;51.120;6.192;2022-12-17T17:16:05;-4.50;99.90
18103;DHT22;9178;51.120;6.192;2022-12-17T17:18:33;-4.50;99.90
18103;DHT22;9178;51.120;6.192;2022-12-17T17:21:21;-4.50;99.90
18103;DHT22;9178;51.120;6.192;2022-12-17T17:23:50;-4.60;99.90